sensor_id;sensor_type;location;lat;lon;timestamp;temperature;humidity
59007;DHT22;44792;52.760;6.726;2022-07-29T00:01:51;15.60;99.90
59007;DHT22;44792;52.760;6.726;2022-07-29T00:04:18;15.60;99.90
59007;DHT22;44792;52.760;6.726;2022-07-29T00:06:43;15.60;99.90
59007;DHT22;44792;52.760;6.726;2022-07-29T00:09:09;15.60;99.90
59007;DHT22;44792;52.760;6.726;2022-07-29T00:11:35;15.50;99.90
59007;DHT22;44792;52.760;6.726;2022-07-29T00:14:00;15.50;99.90
59007;DHT22;44792;52.760;6.726;2022-07-29T00:16:26;15.50;99.90
59007;DHT22;44792;52.760;6.726;2022-07-29T00:18:51;15.60;99.90
59007;DHT22;44792;52.760;6.726;2022-07-29T00:21:17;15.50;99.90
59007;DHT22;44792;52.760;6.726;2022-07-29T00:23:43;15.50;99.90
59007;DHT22;44792;52.760;6.726;2022-07-29T00:26:08;15.40;99.90
59007;DHT22;44792;52.760;6.726;2022-07-29T00:28:34;15.50;99.90
59007;DHT22;44792;52.760;6.726;2022-07-29T00:30:59;15.40;99.90
59007;DHT22;44792;52.760;6.726;2022-07-29T00:33:25;15.40;99.90
59007;DHT22;44792;52.760;6.726;2022-07-29T00:35:51;15.40;99.90
59007;DHT22;44792;52.760;6.726;2022-07-29T00:38:18;15.40;99.90
59007;DHT22;44792;52.760;6.726;2022-07-29T00:40:44;15.40;99.90
59007;DHT22;44792;52.760;6.726;2022-07-29T00:43:11;15.40;99.90
59007;DHT22;44792;52.760;6.726;2022-07-29T00:45:37;15.40;99.90
59007;DHT22;44792;52.760;6.726;2022-07-29T00:48:03;15.30;99.90
59007;DHT22;44792;52.760;6.726;2022-07-29T00:50:30;15.30;99.90
59007;DHT22;44792;52.760;6.726;2022-07-29T00:52:56;15.40;99.90
59007;DHT22;44792;52.760;6.726;2022-07-29T00:55:22;15.30;99.90
59007;DHT22;44792;52.760;6.726;2022-07-29T00:57:48;15.30;99.90
59007;DHT22;44792;52.760;6.726;2022-07-29T01:00:20;15.30;99.90
59007;DHT22;44792;52.760;6.726;2022-07-29T01:02:47;15.30;99.90
59007;DHT22;44792;52.760;6.726;2022-07-29T01:05:21;15.30;99.90
59007;DHT22;44792;52.760;6.726;2022-07-29T01:07:49;15.30;99.90
59007;DHT22;44792;52.760;6.726;2022-07-29T01:10:16;15.30;99.90
59007;DHT22;44792;52.760;6.726;2022-07-29T01:12:46;15.40;99.90
59007;DHT22;44792;52.760;6.726;2022-07-29T01:15:12;15.30;99.90
59007;DHT22;44792;52.760;6.726;2022-07-29T01:23:00;15.30;99.90
59007;DHT22;44792;52.760;6.726;2022-07-29T01:31:05;15.20;99.90
59007;DHT22;44792;52.760;6.726;2022-07-29T01:33:34;15.20;99.90
59007;DHT22;44792;52.760;6.726;2022-07-29T01:36:23;15.20;99.90
59007;DHT22;44792;52.760;6.726;2022-07-29T01:39:09;15.20;99.90
59007;DHT22;44792;52.760;6.726;2022-07-29T01:41:43;15.20;99.90
59007;DHT22;44792;52.760;6.726;2022-07-29T01:44:34;15.20;99.90
59007;DHT22;44792;52.760;6.726;2022-07-29T01:47:08;15.20;99.90
59007;DHT22;44792;52.760;6.726;2022-07-29T01:49:41;15.20;99.90
59007;DHT22;44792;52.760;6.726;2022-07-29T01:52:13;15.10;99.90
59007;DHT22;44792;52.760;6.726;2022-07-29T01:54:43;15.20;99.90
59007;DHT22;44792;52.760;6.726;2022-07-29T01:57:13;15.10;99.90
59007;DHT22;44792;52.760;6.726;2022-07-29T01:59:41;15.10;99.90
59007;DHT22;44792;52.760;6.726;2022-07-29T02:02:09;15.10;99.90
59007;DHT22;44792;52.760;6.726;2022-07-29T02:04:36;15.00;99.90
59007;DHT22;44792;52.760;6.726;2022-07-29T02:07:06;15.10;99.90
59007;DHT22;44792;52.760;6.726;2022-07-29T02:09:35;15.10;99.90
59007;DHT22;44792;52.760;6.726;2022-07-29T02:12:03;15.10;99.90
59007;DHT22;44792;52.760;6.726;2022-07-29T02:14:40;15.10;99.90
59007;DHT22;44792;52.760;6.726;2022-07-29T02:17:08;15.10;99.90
59007;DHT22;44792;52.760;6.726;2022-07-29T02:19:36;15.10;99.90
59007;DHT22;44792;52.760;6.726;2022-07-29T02:22:04;15.10;99.90
59007;DHT22;44792;52.760;6.726;2022-07-29T02:24:31;15.10;99.90
59007;DHT22;44792;52.760;6.726;2022-07-29T02:26:59;15.00;99.90
59007;DHT22;44792;52.760;6.726;2022-07-29T02:29:26;15.10;99.90
59007;DHT22;44792;52.760;6.726;2022-07-29T02:31:55;15.00;99.90
59007;DHT22;44792;52.760;6.726;2022-07-29T02:34:23;15.00;99.90
59007;DHT22;44792;52.760;6.726;2022-07-29T02:36:50;15.00;99.90
59007;DHT22;44792;52.760;6.726;2022-07-29T02:39:18;15.00;99.90
59007;DHT22;44792;52.760;6.726;2022-07-29T02:41:52;15.00;99.90
59007;DHT22;44792;52.760;6.726;2022-07-29T02:44:24;15.00;99.90
59007;DHT22;44792;52.760;6.726;2022-07-29T02:47:13;15.00;99.90
59007;DHT22;44792;52.760;6.726;2022-07-29T02:49:59;15.00;99.90
59007;DHT22;44792;52.760;6.726;2022-07-29T02:52:57;15.00;99.90
59007;DHT22;44792;52.760;6.726;2022-07-29T02:55:32;15.00;99.90
59007;DHT22;44792;52.760;6.726;2022-07-29T02:58:20;15.00;99.90
59007;DHT22;44792;52.760;6.726;2022-07-29T03:00:49;15.00;99.90
59007;DHT22;44792;52.760;6.726;2022-07-29T03:03:18;15.00;99.90
59007;DHT22;44792;52.760;6.726;2022-07-29T03:05:44;15.00;99.90
59007;DHT22;44792;52.760;6.726;2022-07-29T03:08:11;15.00;99.90
59007;DHT22;44792;52.760;6.726;2022-07-29T03:10:39;15.00;99.90
59007;DHT22;44792;52.760;6.726;2022-07-29T03:13:06;14.90;99.90
59007;DHT22;44792;52.760;6.726;2022-07-29T03:15:33;14.90;99.90
59007;DHT22;44792;52.760;6.726;2022-07-29T03:17:59;14.90;99.90
59007;DHT22;44792;52.760;6.726;2022-07-29T03:20:26;14.90;99.90
59007;DHT22;44792;52.760;6.726;2022-07-29T03:22:51;14.90;99.90
59007;DHT22;44792;52.760;6.726;2022-07-29T03:25:19;14.90;99.90
59007;DHT22;44792;52.760;6.726;2022-07-29T03:27:46;14.90;99.90
59007;DHT22;44792;52.760;6.726;2022-07-29T03:30:12;14.90;99.90
59007;DHT22;44792;52.760;6.726;2022-07-29T03:32:39;14.90;99.90
59007;DHT22;44792;52.760;6.726;2022-07-29T03:35:06;14.90;99.90
59007;DHT22;44792;52.760;6.726;2022-07-29T03:37:32;14.90;99.90
59007;DHT22;44792;52.760;6.726;2022-07-29T03:39:58;14.90;99.90
59007;DHT22;44792;52.760;6.726;2022-07-29T03:42:28;14.90;99.90
59007;DHT22;44792;52.760;6.726;2022-07-29T03:44:57;14.80;99.90
59007;DHT22;44792;52.760;6.726;2022-07-29T03:47:25;14.80;99.90
59007;DHT22;44792;52.760;6.726;2022-07-29T03:49:55;14.80;99.90
59007;DHT22;44792;52.760;6.726;2022-07-29T03:52:22;14.90;99.90
59007;DHT22;44792;52.760;6.726;2022-07-29T03:54:48;14.80;99.90
59007;DHT22;44792;52.760;6.726;2022-07-29T03:57:14;14.80;99.90
59007;DHT22;44792;52.760;6.726;2022-07-29T03:59:41;14.80;99.90
59007;DHT22;44792;52.760;6.726;2022-07-29T04:02:09;14.80;99.90
59007;DHT22;44792;52.760;6.726;2022-07-29T04:04:36;14.80;99.90
59007;DHT22;44792;52.760;6.726;2022-07-29T04:07:02;14.70;99.90
59007;DHT22;44792;52.760;6.726;2022-07-29T04:09:27;14.80;99.90
59007;DHT22;44792;52.760;6.726;2022-07-29T04:11:53;14.70;99.90
59007;DHT22;44792;52.760;6.726;2022-07-29T04:14:19;14.70;99.90
59007;DHT22;44792;52.760;6.726;2022-07-29T04:16:45;14.70;99.90
59007;DHT22;44792;52.760;6.726;2022-07-29T04:19:11;14.80;99.90
59007;DHT22;44792;52.760;6.726;2022-07-29T04:21:41;14.80;99.90
59007;DHT22;44792;52.760;6.726;2022-07-29T04:24:08;14.80;99.90
59007;DHT22;44792;52.760;6.726;2022-07-29T04:26:34;14.70;99.90
59007;DHT22;44792;52.760;6.726;2022-07-29T04:29:00;14.70;99.90
59007;DHT22;44792;52.760;6.726;2022-07-29T04:31:26;14.70;99.90
59007;DHT22;44792;52.760;6.726;2022-07-29T04:33:52;14.70;99.90
59007;DHT22;44792;52.760;6.726;2022-07-29T04:36:17;14.70;99.90
59007;DHT22;44792;52.760;6.726;2022-07-29T04:38:43;14.70;99.90
59007;DHT22;44792;52.760;6.726;2022-07-29T04:41:08;14.80;99.90
59007;DHT22;44792;52.760;6.726;2022-07-29T04:43:35;14.70;99.90
59007;DHT22;44792;52.760;6.726;2022-07-29T04:46:02;14.80;99.90
59007;DHT22;44792;52.760;6.726;2022-07-29T04:48:28;14.80;99.90
59007;DHT22;44792;52.760;6.726;2022-07-29T04:50:53;14.80;99.90
59007;DHT22;44792;52.760;6.726;2022-07-29T04:53:19;14.80;99.90
59007;DHT22;44792;52.760;6.726;2022-07-29T04:55:44;14.80;99.90
59007;DHT22;44792;52.760;6.726;2022-07-29T04:58:10;14.80;99.90
59007;DHT22;44792;52.760;6.726;2022-07-29T05:00:36;14.80;99.90
59007;DHT22;44792;52.760;6.726;2022-07-29T05:03:03;14.80;99.90
59007;DHT22;44792;52.760;6.726;2022-07-29T05:05:29;14.80;99.90
59007;DHT22;44792;52.760;6.726;2022-07-29T05:07:54;14.80;99.90
59007;DHT22;44792;52.760;6.726;2022-07-29T05:10:20;14.90;99.90
59007;DHT22;44792;52.760;6.726;2022-07-29T05:12:46;14.90;99.90
59007;DHT22;44792;52.760;6.726;2022-07-29T05:15:11;14.90;99.90
59007;DHT22;44792;52.760;6.726;2022-07-29T05:17:37;14.90;99.90
59007;DHT22;44792;52.760;6.726;2022-07-29T05:20:03;15.00;99.90
59007;DHT22;44792;52.760;6.726;2022-07-29T05:22:29;15.10;99.90
59007;DHT22;44792;52.760;6.726;2022-07-29T05:24:55;15.20;99.90
59007;DHT22;44792;52.760;6.726;2022-07-29T05:27:20;15.20;99.90
59007;DHT22;44792;52.760;6.726;2022-07-29T05:29:46;15.30;99.90
59007;DHT22;44792;52.760;6.726;2022-07-29T05:32:14;15.40;99.90
59007;DHT22;44792;52.760;6.726;2022-07-29T05:34:40;15.50;99.90
59007;DHT22;44792;52.760;6.726;2022-07-29T05:37:06;15.40;99.90
59007;DHT22;44792;52.760;6.726;2022-07-29T05:39:32;15.50;99.90
59007;DHT22;44792;52.760;6.726;2022-07-29T05:41:57;15.50;99.90
59007;DHT22;44792;52.760;6.726;2022-07-29T05:44:23;15.40;99.90
59007;DHT22;44792;52.760;6.726;2022-07-29T05:46:48;15.40;99.90
59007;DHT22;44792;52.760;6.726;2022-07-29T05:49:14;15.50;99.90
59007;DHT22;44792;52.760;6.726;2022-07-29T05:51:39;15.50;99.90
59007;DHT22;44792;52.760;6.726;2022-07-29T05:54:05;15.60;99.90
59007;DHT22;44792;52.760;6.726;2022-07-29T05:56:31;15.70;99.90
59007;DHT22;44792;52.760;6.726;2022-07-29T05:58:57;15.70;99.90
59007;DHT22;44792;52.760;6.726;2022-07-29T06:01:22;15.70;99.90
59007;DHT22;44792;52.760;6.726;2022-07-29T06:03:48;15.70;99.90
59007;DHT22;44792;52.760;6.726;2022-07-29T06:06:13;15.80;99.90
59007;DHT22;44792;52.760;6.726;2022-07-29T06:08:39;15.90;99.90
59007;DHT22;44792;52.760;6.726;2022-07-29T06:11:06;16.10;99.90
59007;DHT22;44792;52.760;6.726;2022-07-29T06:13:33;16.10;99.90
59007;DHT22;44792;52.760;6.726;2022-07-29T06:15:59;16.20;99.90
59007;DHT22;44792;52.760;6.726;2022-07-29T06:18:24;16.10;99.90
59007;DHT22;44792;52.760;6.726;2022-07-29T06:20:50;16.30;99.90
59007;DHT22;44792;52.760;6.726;2022-07-29T06:23:17;16.40;99.90
59007;DHT22;44792;52.760;6.726;2022-07-29T06:25:43;16.40;99.90
59007;DHT22;44792;52.760;6.726;2022-07-29T06:28:09;16.40;99.90
59007;DHT22;44792;52.760;6.726;2022-07-29T06:30:35;16.50;99.90
59007;DHT22;44792;52.760;6.726;2022-07-29T06:33:00;16.50;99.90
59007;DHT22;44792;52.760;6.726;2022-07-29T06:35:27;16.50;99.90
59007;DHT22;44792;52.760;6.726;2022-07-29T06:37:53;16.50;99.90
59007;DHT22;44792;52.760;6.726;2022-07-29T06:40:18;16.40;99.90
59007;DHT22;44792;52.760;6.726;2022-07-29T06:43:02;16.50;99.90
59007;DHT22;44792;52.760;6.726;2022-07-29T06:45:28;16.50;99.90
59007;DHT22;44792;52.760;6.726;2022-07-29T06:47:54;16.40;99.90
59007;DHT22;44792;52.760;6.726;2022-07-29T06:50:19;16.40;99.90
59007;DHT22;44792;52.760;6.726;2022-07-29T06:52:45;16.40;99.90
59007;DHT22;44792;52.760;6.726;2022-07-29T06:55:11;16.40;99.90
59007;DHT22;44792;52.760;6.726;2022-07-29T06:57:36;16.40;99.90
59007;DHT22;44792;52.760;6.726;2022-07-29T07:00:03;16.40;99.90
59007;DHT22;44792;52.760;6.726;2022-07-29T07:02:30;16.40;99.90
59007;DHT22;44792;52.760;6.726;2022-07-29T07:04:55;16.40;99.90
59007;DHT22;44792;52.760;6.726;2022-07-29T07:07:21;16.40;99.90
59007;DHT22;44792;52.760;6.726;2022-07-29T07:09:46;16.40;99.90
59007;DHT22;44792;52.760;6.726;2022-07-29T07:12:12;16.40;99.90
59007;DHT22;44792;52.760;6.726;2022-07-29T07:14:38;16.50;99.90
59007;DHT22;44792;52.760;6.726;2022-07-29T07:17:05;16.50;99.90
59007;DHT22;44792;52.760;6.726;2022-07-29T07:19:32;16.50;99.90
59007;DHT22;44792;52.760;6.726;2022-07-29T07:21:57;16.60;99.90
59007;DHT22;44792;52.760;6.726;2022-07-29T07:24:23;16.60;99.90
59007;DHT22;44792;52.760;6.726;2022-07-29T07:26:49;16.70;99.90
59007;DHT22;44792;52.760;6.726;2022-07-29T07:29:14;16.70;99.90
59007;DHT22;44792;52.760;6.726;2022-07-29T07:31:40;16.70;99.90
59007;DHT22;44792;52.760;6.726;2022-07-29T07:34:06;16.70;99.90
59007;DHT22;44792;52.760;6.726;2022-07-29T07:36:31;16.70;99.90
59007;DHT22;44792;52.760;6.726;2022-07-29T07:38:57;16.80;99.90
59007;DHT22;44792;52.760;6.726;2022-07-29T07:41:22;16.90;99.90
59007;DHT22;44792;52.760;6.726;2022-07-29T07:43:48;16.90;99.90
59007;DHT22;44792;52.760;6.726;2022-07-29T07:46:14;17.00;99.90
59007;DHT22;44792;52.760;6.726;2022-07-29T07:48:40;17.00;99.90
59007;DHT22;44792;52.760;6.726;2022-07-29T07:51:06;17.10;99.90
59007;DHT22;44792;52.760;6.726;2022-07-29T07:53:32;17.00;99.90
59007;DHT22;44792;52.760;6.726;2022-07-29T07:55:58;17.10;99.90
59007;DHT22;44792;52.760;6.726;2022-07-29T07:58:24;17.10;99.90
59007;DHT22;44792;52.760;6.726;2022-07-29T08:00:50;17.10;99.90
59007;DHT22;44792;52.760;6.726;2022-07-29T08:03:15;17.20;99.90
59007;DHT22;44792;52.760;6.726;2022-07-29T08:05:41;17.20;99.90
59007;DHT22;44792;52.760;6.726;2022-07-29T08:08:07;17.20;99.90
59007;DHT22;44792;52.760;6.726;2022-07-29T08:10:33;17.30;99.90
59007;DHT22;44792;52.760;6.726;2022-07-29T08:13:18;17.30;99.90
59007;DHT22;44792;52.760;6.726;2022-07-29T08:15:44;17.30;99.90
59007;DHT22;44792;52.760;6.726;2022-07-29T08:18:11;17.40;99.90
59007;DHT22;44792;52.760;6.726;2022-07-29T08:20:38;17.40;99.90
59007;DHT22;44792;52.760;6.726;2022-07-29T08:23:05;17.40;99.90
59007;DHT22;44792;52.760;6.726;2022-07-29T08:25:32;17.40;99.90
59007;DHT22;44792;52.760;6.726;2022-07-29T08:27:58;17.50;99.90
59007;DHT22;44792;52.760;6.726;2022-07-29T08:30:24;17.50;99.90
59007;DHT22;44792;52.760;6.726;2022-07-29T08:32:50;17.60;99.90
59007;DHT22;44792;52.760;6.726;2022-07-29T08:35:21;17.70;99.90
59007;DHT22;44792;52.760;6.726;2022-07-29T08:37:47;17.60;99.90
59007;DHT22;44792;52.760;6.726;2022-07-29T08:40:13;17.60;99.90
59007;DHT22;44792;52.760;6.726;2022-07-29T08:42:39;17.60;99.90
59007;DHT22;44792;52.760;6.726;2022-07-29T08:45:06;17.80;99.90
59007;DHT22;44792;52.760;6.726;2022-07-29T08:47:33;17.90;99.90
59007;DHT22;44792;52.760;6.726;2022-07-29T08:49:58;17.90;99.90
59007;DHT22;44792;52.760;6.726;2022-07-29T08:52:25;17.90;99.90
59007;DHT22;44792;52.760;6.726;2022-07-29T08:54:52;17.90;99.90
59007;DHT22;44792;52.760;6.726;2022-07-29T08:57:19;17.90;99.90
59007;DHT22;44792;52.760;6.726;2022-07-29T08:59:46;17.90;99.90
59007;DHT22;44792;52.760;6.726;2022-07-29T09:02:19;18.00;99.90
59007;DHT22;44792;52.760;6.726;2022-07-29T09:04:45;18.00;99.90
59007;DHT22;44792;52.760;6.726;2022-07-29T09:07:17;17.90;99.90
59007;DHT22;44792;52.760;6.726;2022-07-29T09:09:43;17.90;99.90
59007;DHT22;44792;52.760;6.726;2022-07-29T09:12:11;17.90;99.90
59007;DHT22;44792;52.760;6.726;2022-07-29T09:14:38;17.90;99.90
59007;DHT22;44792;52.760;6.726;2022-07-29T09:17:04;18.00;99.90
59007;DHT22;44792;52.760;6.726;2022-07-29T09:19:38;18.00;99.90
59007;DHT22;44792;52.760;6.726;2022-07-29T09:22:06;18.00;99.90
59007;DHT22;44792;52.760;6.726;2022-07-29T09:24:46;18.00;99.90
59007;DHT22;44792;52.760;6.726;2022-07-29T09:27:25;18.10;99.90
59007;DHT22;44792;52.760;6.726;2022-07-29T09:30:04;18.10;99.90
59007;DHT22;44792;52.760;6.726;2022-07-29T09:32:31;18.10;99.90
59007;DHT22;44792;52.760;6.726;2022-07-29T09:35:20;18.20;99.90
59007;DHT22;44792;52.760;6.726;2022-07-29T09:37:46;18.20;99.90
59007;DHT22;44792;52.760;6.726;2022-07-29T09:40:14;18.30;99.90
59007;DHT22;44792;52.760;6.726;2022-07-29T09:42:41;18.40;99.90
59007;DHT22;44792;52.760;6.726;2022-07-29T09:45:07;18.50;99.90
59007;DHT22;44792;52.760;6.726;2022-07-29T09:47:47;18.50;99.90
59007;DHT22;44792;52.760;6.726;2022-07-29T09:50:15;18.60;99.90
59007;DHT22;44792;52.760;6.726;2022-07-29T09:52:49;18.60;99.90
59007;DHT22;44792;52.760;6.726;2022-07-29T09:55:17;18.70;99.90
59007;DHT22;44792;52.760;6.726;2022-07-29T09:57:43;18.80;99.90
59007;DHT22;44792;52.760;6.726;2022-07-29T10:00:12;18.80;99.90
59007;DHT22;44792;52.760;6.726;2022-07-29T10:02:40;18.90;99.90
59007;DHT22;44792;52.760;6.726;2022-07-29T10:05:22;18.90;99.90
59007;DHT22;44792;52.760;6.726;2022-07-29T10:07:50;18.90;99.90
59007;DHT22;44792;52.760;6.726;2022-07-29T10:10:26;18.90;99.90
59007;DHT22;44792;52.760;6.726;2022-07-29T10:13:00;19.00;99.90
59007;DHT22;44792;52.760;6.726;2022-07-29T10:15:29;19.00;99.90
59007;DHT22;44792;52.760;6.726;2022-07-29T10:17:56;19.00;99.90
59007;DHT22;44792;52.760;6.726;2022-07-29T10:20:22;19.10;99.90
59007;DHT22;44792;52.760;6.726;2022-07-29T10:22:49;19.20;99.90
59007;DHT22;44792;52.760;6.726;2022-07-29T10:25:16;19.20;99.90
59007;DHT22;44792;52.760;6.726;2022-07-29T10:27:43;19.20;99.90
59007;DHT22;44792;52.760;6.726;2022-07-29T10:30:09;19.30;99.90
59007;DHT22;44792;52.760;6.726;2022-07-29T10:35:15;19.20;99.90
59007;DHT22;44792;52.760;6.726;2022-07-29T10:43:53;19.10;99.90
59007;DHT22;44792;52.760;6.726;2022-07-29T10:46:20;19.10;99.90
59007;DHT22;44792;52.760;6.726;2022-07-29T10:52:09;19.20;99.90
59007;DHT22;44792;52.760;6.726;2022-07-29T10:57:23;19.20;99.90
59007;DHT22;44792;52.760;6.726;2022-07-29T11:05:10;19.20;99.90
59007;DHT22;44792;52.760;6.726;2022-07-29T11:07:38;19.20;99.90
59007;DHT22;44792;52.760;6.726;2022-07-29T11:15:05;19.30;99.90
59007;DHT22;44792;52.760;6.726;2022-07-29T11:20:50;19.30;99.90
59007;DHT22;44792;52.760;6.726;2022-07-29T11:23:32;19.40;99.90
59007;DHT22;44792;52.760;6.726;2022-07-29T11:26:17;19.50;99.90
59007;DHT22;44792;52.760;6.726;2022-07-29T11:31:35;19.60;99.90
59007;DHT22;44792;52.760;6.726;2022-07-29T11:39:38;19.70;99.90
59007;DHT22;44792;52.760;6.726;2022-07-29T11:45:07;19.80;99.90
59007;DHT22;44792;52.760;6.726;2022-07-29T11:47:40;19.80;99.90
59007;DHT22;44792;52.760;6.726;2022-07-29T11:50:09;19.80;99.90
59007;DHT22;44792;52.760;6.726;2022-07-29T11:52:39;19.90;99.90
59007;DHT22;44792;52.760;6.726;2022-07-29T11:55:11;19.90;99.90
59007;DHT22;44792;52.760;6.726;2022-07-29T11:57:49;20.00;99.90
59007;DHT22;44792;52.760;6.726;2022-07-29T12:00:35;20.00;99.90
59007;DHT22;44792;52.760;6.726;2022-07-29T12:03:04;20.00;99.90
59007;DHT22;44792;52.760;6.726;2022-07-29T12:08:07;20.10;99.90
59007;DHT22;44792;52.760;6.726;2022-07-29T12:10:33;20.10;99.90
59007;DHT22;44792;52.760;6.726;2022-07-29T12:12:59;20.10;99.90
59007;DHT22;44792;52.760;6.726;2022-07-29T12:15:25;20.20;99.90
59007;DHT22;44792;52.760;6.726;2022-07-29T12:17:51;20.20;99.90
59007;DHT22;44792;52.760;6.726;2022-07-29T12:20:28;20.30;99.90
59007;DHT22;44792;52.760;6.726;2022-07-29T12:22:54;20.30;99.90
59007;DHT22;44792;52.760;6.726;2022-07-29T12:25:22;20.30;99.90
59007;DHT22;44792;52.760;6.726;2022-07-29T12:27:57;20.30;99.90
59007;DHT22;44792;52.760;6.726;2022-07-29T12:30:22;20.40;99.90
59007;DHT22;44792;52.760;6.726;2022-07-29T12:33:15;20.40;99.90
59007;DHT22;44792;52.760;6.726;2022-07-29T12:35:41;20.40;99.90
59007;DHT22;44792;52.760;6.726;2022-07-29T12:38:10;20.50;99.90
59007;DHT22;44792;52.760;6.726;2022-07-29T12:40:55;20.60;99.90
59007;DHT22;44792;52.760;6.726;2022-07-29T12:43:52;20.70;99.90
59007;DHT22;44792;52.760;6.726;2022-07-29T12:46:18;20.80;99.90
59007;DHT22;44792;52.760;6.726;2022-07-29T12:48:44;20.90;99.90
59007;DHT22;44792;52.760;6.726;2022-07-29T12:51:10;20.90;99.90
59007;DHT22;44792;52.760;6.726;2022-07-29T12:53:38;20.80;99.90
59007;DHT22;44792;52.760;6.726;2022-07-29T12:56:05;20.90;99.90
59007;DHT22;44792;52.760;6.726;2022-07-29T12:58:39;20.90;99.90
59007;DHT22;44792;52.760;6.726;2022-07-29T13:01:19;21.00;99.90
59007;DHT22;44792;52.760;6.726;2022-07-29T13:03:54;21.10;99.90
59007;DHT22;44792;52.760;6.726;2022-07-29T13:06:41;21.10;99.90
59007;DHT22;44792;52.760;6.726;2022-07-29T13:09:17;21.20;99.90
59007;DHT22;44792;52.760;6.726;2022-07-29T13:14:12;21.10;99.90
59007;DHT22;44792;52.760;6.726;2022-07-29T13:19:36;21.20;99.90
59007;DHT22;44792;52.760;6.726;2022-07-29T13:22:03;21.30;99.90
59007;DHT22;44792;52.760;6.726;2022-07-29T13:24:29;21.40;99.90
59007;DHT22;44792;52.760;6.726;2022-07-29T13:26:54;21.30;99.90
59007;DHT22;44792;52.760;6.726;2022-07-29T13:29:21;21.40;99.90
59007;DHT22;44792;52.760;6.726;2022-07-29T13:31:46;21.30;99.90
59007;DHT22;44792;52.760;6.726;2022-07-29T13:34:12;21.30;99.90
59007;DHT22;44792;52.760;6.726;2022-07-29T13:36:37;21.40;99.90
59007;DHT22;44792;52.760;6.726;2022-07-29T13:39:03;21.50;99.90
59007;DHT22;44792;52.760;6.726;2022-07-29T13:41:29;21.40;99.90
59007;DHT22;44792;52.760;6.726;2022-07-29T13:43:55;21.50;99.90
59007;DHT22;44792;52.760;6.726;2022-07-29T13:46:21;21.60;99.90
59007;DHT22;44792;52.760;6.726;2022-07-29T13:48:46;21.70;99.90
59007;DHT22;44792;52.760;6.726;2022-07-29T13:51:12;21.60;99.90
59007;DHT22;44792;52.760;6.726;2022-07-29T13:53:37;21.60;99.90
59007;DHT22;44792;52.760;6.726;2022-07-29T13:56:03;21.60;99.90
59007;DHT22;44792;52.760;6.726;2022-07-29T13:58:32;21.60;99.90
59007;DHT22;44792;52.760;6.726;2022-07-29T14:00:58;21.70;99.90
59007;DHT22;44792;52.760;6.726;2022-07-29T14:03:24;21.70;99.90
59007;DHT22;44792;52.760;6.726;2022-07-29T14:05:50;21.70;99.90
59007;DHT22;44792;52.760;6.726;2022-07-29T14:08:16;21.70;99.90
59007;DHT22;44792;52.760;6.726;2022-07-29T14:10:41;21.80;99.90
59007;DHT22;44792;52.760;6.726;2022-07-29T14:13:07;21.70;99.90
59007;DHT22;44792;52.760;6.726;2022-07-29T14:15:32;21.80;99.90
59007;DHT22;44792;52.760;6.726;2022-07-29T14:17:58;21.80;99.90
59007;DHT22;44792;52.760;6.726;2022-07-29T14:20:24;21.80;99.90
59007;DHT22;44792;52.760;6.726;2022-07-29T14:22:49;21.80;99.90
59007;DHT22;44792;52.760;6.726;2022-07-29T14:25:15;21.80;99.90
59007;DHT22;44792;52.760;6.726;2022-07-29T14:27:41;21.90;99.90
59007;DHT22;44792;52.760;6.726;2022-07-29T14:30:08;21.90;99.90
59007;DHT22;44792;52.760;6.726;2022-07-29T14:32:33;21.90;99.90
59007;DHT22;44792;52.760;6.726;2022-07-29T14:34:59;21.90;99.90
59007;DHT22;44792;52.760;6.726;2022-07-29T14:37:24;22.00;99.90
59007;DHT22;44792;52.760;6.726;2022-07-29T14:39:50;22.00;99.90
59007;DHT22;44792;52.760;6.726;2022-07-29T14:42:16;22.10;99.90
59007;DHT22;44792;52.760;6.726;2022-07-29T14:44:41;22.20;99.90
59007;DHT22;44792;52.760;6.726;2022-07-29T14:47:07;22.20;99.90
59007;DHT22;44792;52.760;6.726;2022-07-29T14:49:33;22.30;99.90
59007;DHT22;44792;52.760;6.726;2022-07-29T14:51:59;22.40;99.90
59007;DHT22;44792;52.760;6.726;2022-07-29T14:54:24;22.30;99.90
59007;DHT22;44792;52.760;6.726;2022-07-29T14:56:50;22.40;99.90
59007;DHT22;44792;52.760;6.726;2022-07-29T14:59:16;22.40;99.90
59007;DHT22;44792;52.760;6.726;2022-07-29T15:01:42;22.50;99.90
59007;DHT22;44792;52.760;6.726;2022-07-29T15:04:08;22.60;99.90
59007;DHT22;44792;52.760;6.726;2022-07-29T15:06:33;22.60;99.90
59007;DHT22;44792;52.760;6.726;2022-07-29T15:08:59;22.50;99.90
59007;DHT22;44792;52.760;6.726;2022-07-29T15:11:25;22.70;99.90
59007;DHT22;44792;52.760;6.726;2022-07-29T15:13:50;22.80;99.90
59007;DHT22;44792;52.760;6.726;2022-07-29T15:16:16;22.80;99.90
59007;DHT22;44792;52.760;6.726;2022-07-29T15:18:42;22.80;99.90
59007;DHT22;44792;52.760;6.726;2022-07-29T15:21:07;22.70;99.90
59007;DHT22;44792;52.760;6.726;2022-07-29T15:23:33;22.90;99.90
59007;DHT22;44792;52.760;6.726;2022-07-29T15:26:02;22.90;99.90
59007;DHT22;44792;52.760;6.726;2022-07-29T15:28:28;22.80;99.90
59007;DHT22;44792;52.760;6.726;2022-07-29T15:30:53;22.90;99.90
59007;DHT22;44792;52.760;6.726;2022-07-29T15:33:19;22.90;99.90
59007;DHT22;44792;52.760;6.726;2022-07-29T15:35:45;22.80;99.90
59007;DHT22;44792;52.760;6.726;2022-07-29T15:38:11;22.80;99.90
59007;DHT22;44792;52.760;6.726;2022-07-29T15:40:37;22.70;99.90
59007;DHT22;44792;52.760;6.726;2022-07-29T15:43:05;22.70;99.90
59007;DHT22;44792;52.760;6.726;2022-07-29T15:45:36;22.80;99.90
59007;DHT22;44792;52.760;6.726;2022-07-29T15:48:02;22.70;99.90
59007;DHT22;44792;52.760;6.726;2022-07-29T15:50:27;22.70;99.90
59007;DHT22;44792;52.760;6.726;2022-07-29T15:52:53;22.80;99.90
59007;DHT22;44792;52.760;6.726;2022-07-29T15:55:18;22.80;99.90
59007;DHT22;44792;52.760;6.726;2022-07-29T15:57:44;22.80;99.90
59007;DHT22;44792;52.760;6.726;2022-07-29T16:00:10;22.80;99.90
59007;DHT22;44792;52.760;6.726;2022-07-29T16:02:36;22.90;99.90
59007;DHT22;44792;52.760;6.726;2022-07-29T16:05:02;22.90;99.90
59007;DHT22;44792;52.760;6.726;2022-07-29T16:07:28;23.00;99.90
59007;DHT22;44792;52.760;6.726;2022-07-29T16:09:53;23.00;99.90
59007;DHT22;44792;52.760;6.726;2022-07-29T16:12:19;23.00;99.90
59007;DHT22;44792;52.760;6.726;2022-07-29T16:14:44;23.10;99.90
59007;DHT22;44792;52.760;6.726;2022-07-29T16:17:13;23.10;99.90
59007;DHT22;44792;52.760;6.726;2022-07-29T16:19:38;23.00;99.90
59007;DHT22;44792;52.760;6.726;2022-07-29T16:22:04;23.00;99.90
59007;DHT22;44792;52.760;6.726;2022-07-29T16:24:30;23.10;99.90
59007;DHT22;44792;52.760;6.726;2022-07-29T16:26:57;23.10;99.90
59007;DHT22;44792;52.760;6.726;2022-07-29T16:29:22;23.10;99.90
59007;DHT22;44792;52.760;6.726;2022-07-29T16:31:48;23.10;99.90
59007;DHT22;44792;52.760;6.726;2022-07-29T16:34:13;23.10;99.90